createdAt,value
2022-12-18T00:01:17.964Z,13.70
2022-12-18T00:03:45.607Z,16.17
2022-12-18T00:06:13.103Z,13.52
2022-12-18T00:08:39.682Z,13.60
2022-12-18T00:11:11.436Z,15.87
2022-12-18T00:13:38.458Z,15.90
2022-12-18T00:16:07.940Z,15.30
2022-12-18T00:18:34.683Z,15.35
2022-12-18T00:21:03.955Z,14.85
2022-12-18T00:23:31.384Z,15.07
2022-12-18T00:26:05.542Z,14.85
2022-12-18T00:28:32.437Z,11.55
2022-12-18T00:31:05.671Z,14.90
2022-12-18T00:33:32.658Z,14.45
2022-12-18T00:36:09.218Z,15.50
2022-12-18T00:38:36.020Z,13.32
2022-12-18T00:41:03.086Z,15.18
2022-12-18T00:43:29.864Z,10.93
2022-12-18T00:45:56.594Z,12.75
2022-12-18T00:48:23.745Z,14.40
2022-12-18T00:50:50.980Z,13.73
2022-12-18T00:53:17.645Z,15.80
2022-12-18T00:55:45.295Z,16.35
2022-12-18T00:58:13.928Z,15.40
2022-12-18T01:00:40.851Z,14.27
2022-12-18T01:03:07.859Z,16.50
2022-12-18T01:05:34.912Z,15.35
2022-12-18T01:08:01.553Z,16.05
2022-12-18T01:10:28.300Z,15.05
2022-12-18T01:12:54.811Z,17.20
2022-12-18T01:15:21.543Z,15.55
2022-12-18T01:17:48.430Z,16.33
2022-12-18T01:20:15.005Z,14.05
2022-12-18T01:22:41.726Z,14.27
2022-12-18T01:25:09.297Z,13.03
2022-12-18T01:27:35.912Z,16.77
2022-12-18T01:30:02.553Z,15.05
2022-12-18T01:32:31.670Z,16.08
2022-12-18T01:34:58.370Z,14.57
2022-12-18T01:37:25.374Z,18.07
2022-12-18T01:39:55.409Z,16.15
2022-12-18T01:42:22.632Z,14.48
2022-12-18T01:45:03.502Z,16.83
2022-12-18T01:47:39.067Z,15.13
2022-12-18T01:50:11.792Z,16.07
2022-12-18T01:52:39.743Z,17.38
2022-12-18T01:55:08.189Z,16.80
2022-12-18T01:57:35.972Z,16.20
2022-12-18T02:00:07.659Z,15.23
2022-12-18T02:02:34.307Z,14.47
2022-12-18T02:05:01.661Z,15.00
2022-12-18T02:07:31.268Z,14.75
2022-12-18T02:10:16.135Z,17.42
2022-12-18T02:13:01.914Z,15.40
2022-12-18T02:15:42.383Z,14.80
2022-12-18T02:18:20.258Z,10.68
2022-12-18T02:20:59.769Z,15.55
2022-12-18T02:23:53.672Z,16.20
2022-12-18T02:26:30.852Z,13.82
2022-12-18T02:29:06.118Z,15.63
2022-12-18T02:31:41.198Z,13.93
2022-12-18T02:34:10.940Z,15.32
2022-12-18T02:36:40.463Z,15.55
2022-12-18T02:39:10.590Z,16.15
2022-12-18T02:41:37.750Z,16.57
2022-12-18T02:44:11.667Z,13.93
2022-12-18T02:46:46.081Z,15.90
2022-12-18T02:49:38.079Z,16.08
2022-12-18T02:52:18.162Z,14.45
2022-12-18T02:55:01.660Z,15.23
2022-12-18T02:57:49.889Z,13.40
2022-12-18T03:00:25.230Z,13.93
2022-12-18T03:02:57.732Z,14.45
2022-12-18T03:05:32.586Z,14.65
2022-12-18T03:08:05.654Z,14.47
2022-12-18T03:10:36.425Z,14.63
2022-12-18T03:13:15.158Z,15.00
2022-12-18T03:15:47.195Z,14.30
2022-12-18T03:18:31.188Z,14.07
2022-12-18T03:21:01.890Z,15.03
2022-12-18T03:23:33.546Z,13.75
2022-12-18T03:26:07.413Z,14.18
2022-12-18T03:28:39.758Z,13.70
2022-12-18T03:31:10.233Z,11.70
2022-12-18T03:33:46.587Z,14.67
2022-12-18T03:36:13.599Z,13.65
2022-12-18T03:38:40.206Z,11.00
2022-12-18T03:41:15.759Z,13.00
2022-12-18T03:43:50.212Z,13.98
2022-12-18T03:46:27.222Z,12.10
2022-12-18T03:49:00.995Z,10.95
2022-12-18T03:51:38.266Z,12.57
2022-12-18T03:54:07.466Z,12.63
2022-12-18T03:56:41.317Z,12.25
2022-12-18T03:59:11.036Z,12.00
2022-12-18T04:01:41.985Z,11.68
2022-12-18T04:04:11.029Z,11.82
2022-12-18T04:06:39.630Z,11.23
2022-12-18T04:09:06.670Z,12.40
2022-12-18T04:11:33.311Z,12.73
2022-12-18T04:14:01.946Z,13.10
2022-12-18T04:16:31.351Z,9.85
2022-12-18T04:18:58.177Z,11.48
2022-12-18T04:21:24.897Z,12.20
2022-12-18T04:23:51.426Z,11.97
2022-12-18T04:26:18.423Z,9.40
2022-12-18T04:28:45.074Z,9.20
2022-12-18T04:31:11.740Z,10.77
2022-12-18T04:33:38.865Z,10.00
2022-12-18T04:36:06.257Z,9.57
2022-12-18T04:38:33.465Z,10.10
2022-12-18T04:41:00.053Z,11.25
2022-12-18T04:43:26.634Z,9.93
2022-12-18T04:45:53.301Z,10.90
2022-12-18T04:48:21.193Z,9.47
2022-12-18T04:50:48.991Z,10.20
2022-12-18T04:53:15.487Z,10.30
2022-12-18T04:55:42.002Z,10.02
2022-12-18T04:58:08.573Z,10.52
2022-12-18T05:00:36.489Z,7.77
2022-12-18T05:03:04.111Z,8.27
2022-12-18T05:05:30.979Z,10.18
2022-12-18T05:07:57.919Z,10.25
2022-12-18T05:10:24.871Z,9.20
2022-12-18T05:13:01.164Z,8.80
2022-12-18T05:15:30.258Z,8.32
2022-12-18T05:17:58.026Z,8.80
2022-12-18T05:20:25.669Z,8.27
2022-12-18T05:22:53.392Z,7.35
2022-12-18T05:25:20.810Z,8.40
2022-12-18T05:27:47.470Z,7.18
2022-12-18T05:30:14.454Z,6.97
2022-12-18T05:32:41.549Z,9.05
2022-12-18T05:35:10.180Z,6.97
2022-12-18T05:37:41.183Z,7.43
2022-12-18T05:40:10.566Z,5.90
2022-12-18T05:42:37.202Z,7.78
2022-12-18T05:45:04.267Z,7.22
2022-12-18T05:47:30.862Z,8.57
2022-12-18T05:49:57.732Z,8.97
2022-12-18T05:52:24.825Z,8.52
2022-12-18T05:54:51.396Z,6.53
2022-12-18T05:57:18.054Z,7.63
2022-12-18T05:59:44.644Z,7.63
2022-12-18T06:02:11.267Z,7.13
2022-12-18T06:04:37.943Z,7.20
2022-12-18T06:07:04.613Z,9.20
2022-12-18T06:09:31.264Z,9.10
2022-12-18T06:11:57.833Z,8.95
2022-12-18T06:14:24.465Z,7.97
2022-12-18T06:16:54.260Z,7.30
2022-12-18T06:19:21.070Z,8.32
2022-12-18T06:21:47.995Z,7.85
2022-12-18T06:24:14.712Z,7.32
2022-12-18T06:26:41.229Z,8.47
2022-12-18T06:29:07.954Z,8.88
2022-12-18T06:31:34.593Z,8.00
2022-12-18T06:34:03.995Z,8.45
2022-12-18T06:36:30.695Z,8.40
2022-12-18T06:38:57.506Z,8.23
2022-12-18T06:41:24.402Z,8.57
2022-12-18T06:43:52.250Z,7.75
2022-12-18T06:46:21.512Z,8.55
2022-12-18T06:48:50.130Z,6.95
2022-12-18T06:51:18.888Z,6.60
2022-12-18T06:53:45.815Z,8.18
2022-12-18T06:56:12.465Z,9.05
2022-12-18T06:58:39.976Z,6.93
2022-12-18T07:01:09.142Z,8.23
2022-12-18T07:03:36.030Z,7.23
2022-12-18T07:06:03.239Z,7.70
2022-12-18T07:08:31.174Z,8.07
2022-12-18T07:10:57.922Z,8.18
2022-12-18T07:13:24.612Z,8.45
2022-12-18T07:15:51.226Z,7.60
2022-12-18T07:18:17.862Z,7.82
2022-12-18T07:20:45.219Z,8.07
2022-12-18T07:23:12.559Z,7.32
2022-12-18T07:25:39.489Z,8.35
2022-12-18T07:28:06.241Z,8.50
2022-12-18T07:30:32.779Z,8.40
2022-12-18T07:32:59.360Z,7.47
2022-12-18T07:35:25.918Z,6.55
2022-12-18T07:37:52.426Z,6.70
2022-12-18T07:40:19.335Z,7.27
2022-12-18T07:42:46.071Z,7.93
2022-12-18T07:45:12.588Z,8.20
2022-12-18T07:47:39.153Z,7.75
2022-12-18T07:50:06.622Z,8.80
2022-12-18T07:52:33.259Z,8.27
2022-12-18T07:55:02.359Z,7.65
2022-12-18T08:00:16.123Z,7.82
2022-12-18T08:02:42.905Z,7.85
2022-12-18T08:05:09.793Z,6.77
2022-12-18T08:07:36.490Z,6.45
2022-12-18T08:10:03.220Z,7.70
2022-12-18T08:12:30.634Z,7.05
2022-12-18T08:14:57.173Z,7.50
2022-12-18T08:17:23.779Z,8.47
2022-12-18T08:19:50.548Z,6.45
2022-12-18T08:22:17.146Z,7.43
2022-12-18T08:24:44.042Z,7.28
2022-12-18T08:27:28.910Z,6.70
2022-12-18T08:29:56.875Z,7.17
2022-12-18T08:32:23.908Z,8.05
2022-12-18T08:34:50.599Z,7.53
2022-12-18T08:37:17.119Z,8.20
2022-12-18T08:39:43.651Z,7.30
2022-12-18T08:42:28.801Z,7.53
2022-12-18T08:44:55.409Z,7.00
2022-12-18T08:47:21.973Z,6.53
2022-12-18T08:49:48.461Z,7.63
2022-12-18T08:52:15.015Z,8.50
2022-12-18T08:54:41.584Z,7.37
2022-12-18T08:57:08.151Z,6.07
2022-12-18T08:59:34.727Z,7.68
2022-12-18T09:02:01.447Z,7.88
2022-12-18T09:04:28.147Z,7.70
2022-12-18T09:06:54.666Z,7.93
2022-12-18T09:09:21.183Z,8.35
2022-12-18T09:11:47.790Z,7.75
2022-12-18T09:14:14.443Z,7.97
2022-12-18T09:16:41.020Z,7.75
2022-12-18T09:19:07.846Z,7.90
2022-12-18T09:21:37.448Z,7.07
2022-12-18T09:24:05.253Z,7.03
2022-12-18T09:26:36.115Z,7.75
2022-12-18T09:29:03.721Z,8.32
2022-12-18T09:31:30.267Z,7.57
2022-12-18T09:33:57.721Z,7.13
2022-12-18T09:36:24.397Z,6.82
2022-12-18T09:38:51.488Z,6.72
2022-12-18T09:41:48.296Z,7.18
2022-12-18T09:44:26.041Z,6.97
2022-12-18T09:47:02.148Z,7.00
2022-12-18T09:49:33.381Z,6.93
2022-12-18T09:52:05.986Z,7.00
2022-12-18T09:54:44.484Z,6.40
2022-12-18T09:57:24.328Z,6.60
2022-12-18T10:00:04.270Z,6.00
2022-12-18T10:02:33.172Z,6.63
2022-12-18T10:05:15.237Z,6.82
2022-12-18T10:08:00.632Z,6.22
2022-12-18T10:10:30.209Z,6.00
2022-12-18T10:13:05.713Z,6.75
2022-12-18T10:15:46.322Z,6.93
2022-12-18T10:18:21.599Z,6.72
2022-12-18T10:20:55.660Z,6.10
2022-12-18T10:23:42.420Z,5.07
2022-12-18T10:26:15.867Z,5.80
2022-12-18T10:28:45.116Z,5.93
2022-12-18T10:31:24.330Z,6.53
2022-12-18T10:33:52.384Z,4.75
2022-12-18T10:36:19.268Z,6.07
2022-12-18T10:38:45.990Z,5.55
2022-12-18T10:41:18.633Z,5.00
2022-12-18T10:43:45.858Z,5.90
2022-12-18T10:46:12.433Z,6.25
2022-12-18T10:48:48.961Z,4.57
2022-12-18T10:51:31.491Z,5.72
2022-12-18T10:54:02.819Z,4.78
2022-12-18T10:56:32.712Z,6.07
2022-12-18T10:59:05.958Z,5.88
2022-12-18T11:01:53.537Z,5.50
2022-12-18T11:04:25.726Z,5.88
2022-12-18T11:07:01.146Z,5.05
2022-12-18T11:09:32.841Z,5.25
2022-12-18T11:12:02.316Z,5.55
2022-12-18T11:14:33.319Z,6.00
2022-12-18T11:19:57.706Z,5.65
2022-12-18T11:22:28.916Z,5.82
2022-12-18T11:27:56.824Z,6.70
2022-12-18T11:30:29.319Z,5.90
2022-12-18T11:33:18.633Z,6.40
2022-12-18T11:35:51.084Z,5.20
2022-12-18T11:38:27.870Z,5.07
2022-12-18T11:41:01.525Z,5.17
2022-12-18T11:43:34.509Z,4.93
2022-12-18T11:46:13.500Z,6.25
2022-12-18T11:48:55.219Z,5.20
2022-12-18T11:51:29.735Z,5.13
2022-12-18T11:53:56.275Z,5.60
2022-12-18T11:56:45.160Z,5.53
2022-12-18T11:59:38.159Z,5.55
2022-12-18T12:02:23.430Z,5.45
2022-12-18T12:05:20.917Z,5.28
2022-12-18T12:07:50.593Z,5.60
2022-12-18T12:10:32.356Z,7.13
2022-12-18T12:13:05.622Z,6.47
2022-12-18T12:15:32.180Z,5.55
2022-12-18T12:18:23.924Z,6.18
2022-12-18T12:20:54.275Z,6.23
2022-12-18T12:23:29.899Z,5.88
2022-12-18T12:26:02.270Z,6.22
2022-12-18T12:28:58.465Z,6.05
2022-12-18T12:31:52.801Z,6.25
2022-12-18T12:34:19.569Z,5.30
2022-12-18T12:37:10.232Z,6.20
2022-12-18T12:39:40.640Z,6.25
2022-12-18T12:42:36.996Z,5.25
2022-12-18T12:45:07.835Z,3.58
2022-12-18T12:47:39.626Z,6.10
2022-12-18T12:50:13.530Z,6.65
2022-12-18T12:52:55.629Z,6.57
2022-12-18T12:55:25.374Z,5.78
2022-12-18T12:58:32.540Z,6.10
2022-12-18T13:01:05.092Z,6.53
2022-12-18T13:03:51.302Z,7.22
2022-12-18T13:06:43.011Z,6.40
2022-12-18T13:09:11.590Z,5.65
2022-12-18T13:12:00.614Z,6.80
2022-12-18T13:14:29.771Z,6.37
2022-12-18T13:17:21.582Z,5.15
2022-12-18T13:19:53.589Z,6.47
2022-12-18T13:22:30.347Z,6.65
2022-12-18T13:24:58.542Z,6.05
2022-12-18T13:28:04.503Z,6.50
2022-12-18T13:30:34.072Z,7.10
2022-12-18T13:33:18.264Z,6.35
2022-12-18T13:35:47.621Z,6.15
2022-12-18T13:38:32.948Z,6.70
2022-12-18T13:41:01.241Z,6.37
2022-12-18T13:43:37.027Z,6.57
2022-12-18T13:46:22.489Z,6.95
2022-12-18T13:48:54.960Z,6.20
2022-12-18T13:51:23.258Z,6.30
2022-12-18T13:53:55.719Z,6.03
2022-12-18T13:56:25.433Z,5.90
2022-12-18T13:59:13.373Z,6.20
2022-12-18T14:01:48.985Z,6.43
2022-12-18T14:04:26.359Z,5.75
2022-12-18T14:07:04.925Z,6.87
2022-12-18T14:09:40.447Z,6.10
2022-12-18T14:12:26.203Z,5.22
2022-12-18T14:14:55.611Z,7.30
2022-12-18T14:17:24.053Z,6.68
2022-12-18T14:19:52.279Z,5.90
2022-12-18T14:22:31.152Z,7.43
2022-12-18T14:25:14.408Z,7.15
2022-12-18T14:28:07.510Z,7.15
2022-12-18T14:30:40.902Z,6.95
2022-12-18T14:33:12.549Z,6.97
2022-12-18T14:35:42.242Z,6.95
2022-12-18T14:38:21.430Z,6.50
2022-12-18T14:40:48.236Z,7.50
2022-12-18T14:43:14.813Z,5.22
2022-12-18T14:45:45.505Z,6.50
2022-12-18T14:48:12.567Z,6.72
2022-12-18T14:50:40.784Z,6.00
2022-12-18T14:53:19.524Z,6.63
2022-12-18T14:55:49.855Z,7.00
2022-12-18T14:58:18.489Z,6.90
2022-12-18T15:00:45.210Z,6.78
2022-12-18T15:03:19.466Z,6.80
2022-12-18T15:05:46.394Z,6.90
2022-12-18T15:08:32.486Z,7.95
2022-12-18T15:10:59.602Z,7.73
2022-12-18T15:13:26.293Z,7.30
2022-12-18T15:15:55.678Z,5.72
2022-12-18T15:18:31.204Z,7.53
2022-12-18T15:21:00.219Z,8.38
2022-12-18T15:23:47.359Z,7.73
2022-12-18T15:26:17.172Z,7.00
2022-12-18T15:28:49.793Z,7.70
2022-12-18T15:31:18.112Z,6.10
2022-12-18T15:33:53.969Z,7.70
2022-12-18T15:36:26.379Z,7.40
2022-12-18T15:38:55.169Z,6.22
2022-12-18T15:41:25.895Z,7.97
2022-12-18T15:43:54.193Z,6.60
2022-12-18T15:46:25.368Z,8.27
2022-12-18T15:48:59.768Z,7.07
2022-12-18T15:51:30.444Z,7.53
2022-12-18T15:53:59.506Z,9.70
2022-12-18T15:56:44.542Z,9.38
2022-12-18T15:59:13.549Z,9.65
2022-12-18T16:01:42.795Z,9.73
2022-12-18T16:04:13.035Z,7.93
2022-12-18T16:07:05.333Z,8.25
2022-12-18T16:09:26.622Z,8.60
2022-12-18T16:11:53.499Z,9.38
2022-12-18T16:14:27.616Z,9.57
2022-12-18T16:16:56.907Z,7.75
2022-12-18T16:19:24.451Z,9.07
2022-12-18T16:21:53.312Z,8.50
2022-12-18T16:24:25.161Z,8.63
2022-12-18T16:26:52.888Z,8.43
2022-12-18T16:29:20.399Z,8.63
2022-12-18T16:31:50.627Z,7.88
2022-12-18T16:34:29.181Z,7.25
2022-12-18T16:37:03.112Z,8.73
2022-12-18T16:39:32.907Z,6.37
2022-12-18T16:42:00.025Z,7.22
2022-12-18T16:44:28.681Z,8.85
2022-12-18T16:46:55.598Z,8.55
2022-12-18T16:49:22.429Z,8.90
2022-12-18T16:51:49.505Z,7.30
2022-12-18T16:54:19.171Z,9.05
2022-12-18T16:56:49.837Z,6.80
2022-12-18T16:59:16.678Z,8.10
2022-12-18T17:01:44.639Z,8.75
2022-12-18T17:04:11.512Z,7.43
2022-12-18T17:06:43.783Z,10.10
2022-12-18T17:09:15.530Z,7.57
2022-12-18T17:11:42.735Z,8.30
2022-12-18T17:14:12.939Z,9.63
2022-12-18T17:16:40.228Z,10.17
2022-12-18T17:19:12.133Z,8.25
2022-12-18T17:21:42.144Z,7.57
2022-12-18T17:24:09.377Z,7.70
2022-12-18T17:26:36.609Z,9.80
2022-12-18T17:29:03.867Z,8.40
2022-12-18T17:31:31.050Z,5.93
2022-12-18T17:33:58.622Z,8.05
2022-12-18T17:36:28.979Z,7.55
2022-12-18T17:38:58.129Z,7.88
2022-12-18T17:41:25.832Z,8.07
2022-12-18T17:43:53.782Z,10.00
2022-12-18T17:46:20.553Z,8.80
2022-12-18T17:48:47.576Z,6.57
2022-12-18T17:51:16.185Z,10.23
2022-12-18T17:53:43.446Z,7.50
2022-12-18T17:56:13.915Z,9.02
2022-12-18T17:58:40.732Z,7.75
2022-12-18T18:01:08.294Z,10.27
2022-12-18T18:03:38.218Z,9.23
2022-12-18T18:06:05.351Z,9.90
2022-12-18T18:08:34.710Z,8.88
2022-12-18T18:11:31.997Z,7.70
2022-12-18T18:14:02.225Z,8.93
2022-12-18T18:16:30.431Z,10.23
2022-12-18T18:18:58.777Z,10.37
2022-12-18T18:21:25.635Z,8.63
2022-12-18T18:23:52.736Z,9.70
2022-12-18T18:26:20.091Z,7.72
2022-12-18T18:28:46.724Z,10.85
2022-12-18T18:31:13.379Z,10.50
2022-12-18T18:33:40.522Z,9.90
2022-12-18T18:36:10.513Z,10.40
2022-12-18T18:38:38.981Z,9.50
2022-12-18T18:41:06.112Z,9.63
2022-12-18T18:43:33.074Z,9.00
2022-12-18T18:46:01.812Z,9.38
2022-12-18T18:48:33.936Z,8.65
2022-12-18T18:51:08.455Z,10.85
2022-12-18T18:53:40.008Z,9.43
2022-12-18T18:58:56.482Z,9.05
2022-12-18T19:01:24.241Z,8.02
2022-12-18T19:03:51.476Z,9.07
2022-12-18T19:06:20.964Z,9.23
2022-12-18T19:08:48.432Z,10.63
2022-12-18T19:11:36.477Z,9.88
2022-12-18T19:14:05.848Z,9.63
2022-12-18T19:16:34.096Z,8.73
2022-12-18T19:19:02.312Z,10.13
2022-12-18T19:21:33.873Z,9.23
2022-12-18T19:24:01.677Z,8.27
2022-12-18T19:26:28.815Z,7.95
2022-12-18T19:29:07.744Z,8.80
2022-12-18T19:31:36.326Z,10.13
2022-12-18T19:34:05.017Z,9.70
2022-12-18T19:36:32.886Z,8.07
2022-12-18T19:39:01.691Z,10.00
2022-12-18T19:41:37.680Z,9.55
2022-12-18T19:44:07.748Z,8.35
2022-12-18T19:46:35.911Z,10.10
2022-12-18T19:49:03.020Z,8.43
2022-12-18T19:51:31.673Z,8.23
2022-12-18T19:54:01.724Z,7.55
2022-12-18T19:56:31.514Z,8.18
2022-12-18T19:58:58.470Z,7.70
2022-12-18T20:01:26.573Z,9.27
2022-12-18T20:03:55.890Z,8.45
2022-12-18T20:06:30.318Z,9.13
2022-12-18T20:09:00.677Z,10.32
2022-12-18T20:11:28.878Z,9.70
2022-12-18T20:13:55.545Z,10.35
2022-12-18T20:16:22.087Z,8.48
2022-12-18T20:18:49.252Z,10.68
2022-12-18T20:21:16.103Z,9.80
2022-12-18T20:23:43.638Z,10.43
2022-12-18T20:26:10.986Z,11.30
2022-12-18T20:28:37.864Z,9.15
2022-12-18T20:31:10.506Z,11.02
2022-12-18T20:33:42.030Z,11.13
2022-12-18T20:36:13.725Z,11.10
2022-12-18T20:38:41.732Z,9.07
2022-12-18T20:41:12.589Z,8.98
2022-12-18T20:43:39.775Z,10.75
2022-12-18T20:46:16.191Z,10.45
2022-12-18T20:48:44.709Z,10.80
2022-12-18T20:51:15.246Z,9.90
2022-12-18T20:53:42.597Z,13.50
2022-12-18T20:56:12.622Z,9.50
2022-12-18T20:58:39.219Z,9.00
2022-12-18T21:01:07.731Z,8.50
2022-12-18T21:03:34.494Z,10.52
2022-12-18T21:06:01.026Z,10.43
2022-12-18T21:08:27.528Z,8.60
2022-12-18T21:10:55.487Z,11.10
2022-12-18T21:13:22.622Z,10.30
2022-12-18T21:15:49.463Z,11.60
2022-12-18T21:18:16.260Z,11.20
2022-12-18T21:20:43.094Z,11.75
2022-12-18T21:23:15.679Z,9.75
2022-12-18T21:25:42.828Z,10.67
2022-12-18T21:28:09.415Z,8.73
2022-12-18T21:30:36.101Z,10.57
2022-12-18T21:33:02.779Z,10.27
2022-12-18T21:35:29.374Z,11.95
2022-12-18T21:37:58.850Z,11.77
2022-12-18T21:40:25.526Z,10.35
2022-12-18T21:43:10.541Z,10.93
2022-12-18T21:45:41.709Z,10.68
2022-12-18T21:48:08.289Z,10.88
2022-12-18T21:50:34.809Z,9.80
2022-12-18T21:53:01.301Z,12.02
2022-12-18T21:55:27.901Z,9.00
2022-12-18T21:57:54.396Z,11.18
2022-12-18T22:00:21.035Z,9.23
2022-12-18T22:03:01.114Z,12.13
2022-12-18T22:05:35.938Z,9.50
2022-12-18T22:08:02.480Z,9.82
2022-12-18T22:10:29.036Z,10.77
2022-12-18T22:12:55.487Z,9.05
2022-12-18T22:15:22.192Z,10.60
2022-12-18T22:17:50.450Z,11.25
2022-12-18T22:20:20.482Z,8.52
2022-12-18T22:22:48.260Z,13.32
2022-12-18T22:25:15.002Z,11.70
2022-12-18T22:27:41.504Z,13.00
2022-12-18T22:30:08.632Z,10.32
2022-12-18T22:32:36.366Z,11.30
2022-12-18T22:35:09.537Z,9.05
2022-12-18T22:37:40.840Z,11.18
2022-12-18T22:40:08.634Z,10.47
2022-12-18T22:42:35.455Z,10.30
2022-12-18T22:45:02.005Z,10.25
2022-12-18T22:47:30.405Z,12.07
2022-12-18T22:49:57.694Z,8.63
2022-12-18T22:52:25.065Z,11.13
2022-12-18T22:54:53.559Z,9.57
2022-12-18T22:57:20.589Z,12.00
2022-12-18T22:59:47.104Z,10.48
2022-12-18T23:02:13.691Z,11.18
2022-12-18T23:04:40.357Z,11.93
2022-12-18T23:07:06.960Z,9.68
2022-12-18T23:09:33.485Z,12.43
2022-12-18T23:12:00.352Z,10.02
2022-12-18T23:14:28.062Z,12.95
2022-12-18T23:16:54.711Z,9.73
2022-12-18T23:19:23.632Z,9.38
2022-12-18T23:21:50.795Z,11.23
2022-12-18T23:24:17.361Z,11.73
2022-12-18T23:26:43.968Z,11.30
2022-12-18T23:29:10.607Z,10.40
2022-12-18T23:31:39.180Z,10.00
2022-12-18T23:34:07.137Z,11.23
2022-12-18T23:36:45.616Z,12.23
2022-12-18T23:39:29.124Z,15.02
2022-12-18T23:41:58.126Z,11.37
2022-12-18T23:44:25.022Z,13.68
2022-12-18T23:46:51.574Z,14.23
2022-12-18T23:49:18.136Z,13.02
2022-12-18T23:51:45.168Z,17.77
2022-12-18T23:54:11.751Z,12.57
2022-12-18T23:56:38.238Z,10.57
2022-12-18T23:59:05.048Z,10.55
